sensor_id;sensor_type;location;lat;lon;timestamp;pressure;altitude;pressure_sealevel;temperature;humidity
62402;BME280;48440;51.224;22.506;2022-09-09T00:05:04;98979.81;;;14.71;68.99
62402;BME280;48440;51.224;22.506;2022-09-09T00:07:43;98975.19;;;14.71;68.92
62402;BME280;48440;51.224;22.506;2022-09-09T00:10:22;98980.94;;;14.70;68.55
62402;BME280;48440;51.224;22.506;2022-09-09T00:23:28;98957.97;;;14.71;68.84
62402;BME280;48440;51.224;22.506;2022-09-09T00:28:23;98962.38;;;14.67;69.30
62402;BME280;48440;51.224;22.506;2022-09-09T00:30:50;98963.16;;;14.72;68.84
62402;BME280;48440;51.224;22.506;2022-09-09T00:33:19;98969.00;;;14.60;69.15
62402;BME280;48440;51.224;22.506;2022-09-09T00:36:10;98967.78;;;14.48;69.54
62402;BME280;48440;51.224;22.506;2022-09-09T00:38:51;98966.16;;;14.47;68.96
62402;BME280;48440;51.224;22.506;2022-09-09T00:47:16;98963.66;;;14.50;69.67
62402;BME280;48440;51.224;22.506;2022-09-09T00:50:02;98960.41;;;14.48;69.38
62402;BME280;48440;51.224;22.506;2022-09-09T00:52:35;98955.47;;;14.50;69.24
62402;BME280;48440;51.224;22.506;2022-09-09T00:58:09;98966.53;;;14.30;70.48
62402;BME280;48440;51.224;22.506;2022-09-09T01:00:52;98958.94;;;14.27;69.96
62402;BME280;48440;51.224;22.506;2022-09-09T01:06:02;98951.28;;;14.29;69.96
62402;BME280;48440;51.224;22.506;2022-09-09T01:08:36;98956.50;;;14.25;70.11
62402;BME280;48440;51.224;22.506;2022-09-09T01:11:12;98956.00;;;14.18;70.19
62402;BME280;48440;51.224;22.506;2022-09-09T01:13:41;98960.56;;;14.28;70.01
62402;BME280;48440;51.224;22.506;2022-09-09T01:16:10;98952.38;;;14.28;69.63
62402;BME280;48440;51.224;22.506;2022-09-09T01:18:44;98950.16;;;14.30;70.14
62402;BME280;48440;51.224;22.506;2022-09-09T01:26:42;98942.31;;;14.23;70.11
62402;BME280;48440;51.224;22.506;2022-09-09T01:29:11;98939.91;;;14.17;70.29
62402;BME280;48440;51.224;22.506;2022-09-09T01:31:51;98929.78;;;14.22;70.09
62402;BME280;48440;51.224;22.506;2022-09-09T01:34:17;98936.75;;;14.05;70.42
62402;BME280;48440;51.224;22.506;2022-09-09T01:36:48;98940.06;;;14.02;70.23
62402;BME280;48440;51.224;22.506;2022-09-09T01:39:16;98953.19;;;14.00;71.09
62402;BME280;48440;51.224;22.506;2022-09-09T01:41:42;98948.91;;;13.83;71.27
62402;BME280;48440;51.224;22.506;2022-09-09T01:44:08;98960.66;;;13.84;71.29
62402;BME280;48440;51.224;22.506;2022-09-09T01:46:35;98948.13;;;13.78;71.61
62402;BME280;48440;51.224;22.506;2022-09-09T01:49:02;98949.00;;;13.73;71.47
62402;BME280;48440;51.224;22.506;2022-09-09T01:51:29;98942.47;;;13.74;71.92
62402;BME280;48440;51.224;22.506;2022-09-09T01:53:55;98932.31;;;13.80;71.62
62402;BME280;48440;51.224;22.506;2022-09-09T01:59:34;98935.38;;;13.73;71.72
62402;BME280;48440;51.224;22.506;2022-09-09T02:04:43;98921.75;;;13.73;71.81
62402;BME280;48440;51.224;22.506;2022-09-09T02:07:51;98917.84;;;13.79;71.66
62402;BME280;48440;51.224;22.506;2022-09-09T02:10:24;98918.63;;;13.85;71.60
62402;BME280;48440;51.224;22.506;2022-09-09T02:13:00;98909.06;;;13.87;71.72
62402;BME280;48440;51.224;22.506;2022-09-09T02:18:19;98895.47;;;13.82;71.37
62402;BME280;48440;51.224;22.506;2022-09-09T02:20:53;98888.16;;;13.78;71.79
62402;BME280;48440;51.224;22.506;2022-09-09T02:23:19;98891.41;;;13.80;71.66
62402;BME280;48440;51.224;22.506;2022-09-09T02:25:46;98896.44;;;13.68;71.97
62402;BME280;48440;51.224;22.506;2022-09-09T02:28:14;98900.56;;;13.60;71.99
62402;BME280;48440;51.224;22.506;2022-09-09T02:30:44;98896.47;;;13.63;72.75
62402;BME280;48440;51.224;22.506;2022-09-09T02:33:14;98902.47;;;13.59;72.66
62402;BME280;48440;51.224;22.506;2022-09-09T02:35:40;98897.56;;;13.62;72.50
62402;BME280;48440;51.224;22.506;2022-09-09T02:38:10;98901.94;;;13.57;72.66
62402;BME280;48440;51.224;22.506;2022-09-09T02:40:37;98902.28;;;13.51;73.08
62402;BME280;48440;51.224;22.506;2022-09-09T02:43:03;98896.78;;;13.56;72.44
62402;BME280;48440;51.224;22.506;2022-09-09T02:45:36;98895.13;;;13.55;72.80
62402;BME280;48440;51.224;22.506;2022-09-09T02:48:51;98903.28;;;13.60;72.12
62402;BME280;48440;51.224;22.506;2022-09-09T02:51:02;98904.69;;;13.52;72.54
62402;BME280;48440;51.224;22.506;2022-09-09T02:53:53;98901.94;;;13.57;72.35
62402;BME280;48440;51.224;22.506;2022-09-09T02:56:25;98910.22;;;13.47;73.17
62402;BME280;48440;51.224;22.506;2022-09-09T02:58:53;98918.38;;;13.47;72.59
62402;BME280;48440;51.224;22.506;2022-09-09T03:01:20;98912.69;;;13.44;72.96
62402;BME280;48440;51.224;22.506;2022-09-09T03:03:46;98911.03;;;13.48;73.29
62402;BME280;48440;51.224;22.506;2022-09-09T03:06:11;98908.50;;;13.56;73.17
62402;BME280;48440;51.224;22.506;2022-09-09T03:08:38;98913.69;;;13.53;73.13
62402;BME280;48440;51.224;22.506;2022-09-09T03:11:04;98911.47;;;13.60;72.91
62402;BME280;48440;51.224;22.506;2022-09-09T03:13:35;98913.91;;;13.62;72.71
62402;BME280;48440;51.224;22.506;2022-09-09T03:16:03;98915.53;;;13.63;72.37
62402;BME280;48440;51.224;22.506;2022-09-09T03:18:29;98912.88;;;13.52;73.06
62402;BME280;48440;51.224;22.506;2022-09-09T03:20:55;98924.13;;;13.46;72.84
62402;BME280;48440;51.224;22.506;2022-09-09T03:23:21;98928.47;;;13.47;72.75
62402;BME280;48440;51.224;22.506;2022-09-09T03:25:48;98924.13;;;13.46;73.09
62402;BME280;48440;51.224;22.506;2022-09-09T03:28:14;98917.81;;;13.50;72.98
62402;BME280;48440;51.224;22.506;2022-09-09T03:30:40;98915.69;;;13.42;73.58
62402;BME280;48440;51.224;22.506;2022-09-09T03:33:06;98907.00;;;13.35;73.59
62402;BME280;48440;51.224;22.506;2022-09-09T03:35:31;98924.97;;;13.41;73.46
62402;BME280;48440;51.224;22.506;2022-09-09T03:37:57;98915.75;;;13.32;73.79
62402;BME280;48440;51.224;22.506;2022-09-09T03:40:23;98914.38;;;13.35;73.71
62402;BME280;48440;51.224;22.506;2022-09-09T03:42:49;98911.63;;;13.40;73.06
62402;BME280;48440;51.224;22.506;2022-09-09T03:45:14;98910.56;;;13.31;73.62
62402;BME280;48440;51.224;22.506;2022-09-09T03:47:40;98908.88;;;13.40;73.49
62402;BME280;48440;51.224;22.506;2022-09-09T03:50:07;98907.22;;;13.44;73.38
62402;BME280;48440;51.224;22.506;2022-09-09T03:52:39;98904.00;;;13.37;73.73
62402;BME280;48440;51.224;22.506;2022-09-09T03:55:06;98905.91;;;13.36;73.76
62402;BME280;48440;51.224;22.506;2022-09-09T03:57:32;98913.28;;;13.31;73.79
62402;BME280;48440;51.224;22.506;2022-09-09T04:00:02;98916.34;;;13.24;73.98
62402;BME280;48440;51.224;22.506;2022-09-09T04:02:28;98918.50;;;13.27;74.33
62402;BME280;48440;51.224;22.506;2022-09-09T04:04:54;98933.50;;;13.24;74.35
62402;BME280;48440;51.224;22.506;2022-09-09T04:07:20;98929.09;;;13.29;74.32
62402;BME280;48440;51.224;22.506;2022-09-09T04:09:46;98938.97;;;13.24;74.35
62402;BME280;48440;51.224;22.506;2022-09-09T04:12:12;98940.81;;;13.29;74.28
62402;BME280;48440;51.224;22.506;2022-09-09T04:14:38;98933.19;;;13.31;74.25
62402;BME280;48440;51.224;22.506;2022-09-09T04:17:04;98927.72;;;13.31;73.97
62402;BME280;48440;51.224;22.506;2022-09-09T04:19:32;98924.47;;;13.29;74.51
62402;BME280;48440;51.224;22.506;2022-09-09T04:21:58;98925.00;;;13.31;74.76
62402;BME280;48440;51.224;22.506;2022-09-09T04:24:26;98932.38;;;13.31;74.48
62402;BME280;48440;51.224;22.506;2022-09-09T04:26:54;98927.72;;;13.36;74.67
62402;BME280;48440;51.224;22.506;2022-09-09T04:29:20;98929.09;;;13.34;74.85
62402;BME280;48440;51.224;22.506;2022-09-09T04:31:46;98929.38;;;13.32;74.41
62402;BME280;48440;51.224;22.506;2022-09-09T04:34:12;98926.34;;;13.34;74.28
62402;BME280;48440;51.224;22.506;2022-09-09T04:36:37;98926.34;;;13.34;74.26
62402;BME280;48440;51.224;22.506;2022-09-09T04:39:04;98924.44;;;13.34;74.60
62402;BME280;48440;51.224;22.506;2022-09-09T04:41:29;98923.38;;;13.30;74.61
62402;BME280;48440;51.224;22.506;2022-09-09T04:43:56;98923.38;;;13.30;74.78
62402;BME280;48440;51.224;22.506;2022-09-09T04:46:22;98922.00;;;13.33;74.41
62402;BME280;48440;51.224;22.506;2022-09-09T04:48:49;98916.38;;;13.19;75.22
62402;BME280;48440;51.224;22.506;2022-09-09T04:51:15;98920.41;;;13.27;75.41
62402;BME280;48440;51.224;22.506;2022-09-09T04:53:41;98928.00;;;13.30;75.16
62402;BME280;48440;51.224;22.506;2022-09-09T04:56:13;98919.38;;;13.17;75.41
62402;BME280;48440;51.224;22.506;2022-09-09T04:58:40;98926.44;;;13.13;75.76
62402;BME280;48440;51.224;22.506;2022-09-09T05:01:16;98925.63;;;13.13;76.14
62402;BME280;48440;51.224;22.506;2022-09-09T05:03:45;98924.81;;;13.17;75.97
62402;BME280;48440;51.224;22.506;2022-09-09T05:06:14;98925.63;;;13.23;75.60
62402;BME280;48440;51.224;22.506;2022-09-09T05:08:41;98922.63;;;13.19;75.79
62402;BME280;48440;51.224;22.506;2022-09-09T05:13:43;98925.09;;;13.21;75.28
62402;BME280;48440;51.224;22.506;2022-09-09T05:16:10;98927.28;;;13.19;75.71
62402;BME280;48440;51.224;22.506;2022-09-09T05:18:39;98941.09;;;13.28;75.42
62402;BME280;48440;51.224;22.506;2022-09-09T05:21:05;98938.44;;;13.22;74.99
62402;BME280;48440;51.224;22.506;2022-09-09T05:23:32;98935.09;;;13.31;75.33
62402;BME280;48440;51.224;22.506;2022-09-09T05:25:59;98933.75;;;13.28;75.19
62402;BME280;48440;51.224;22.506;2022-09-09T05:28:27;98934.53;;;13.34;74.93
62402;BME280;48440;51.224;22.506;2022-09-09T05:31:00;98934.28;;;13.30;75.48
62402;BME280;48440;51.224;22.506;2022-09-09T05:33:28;98935.91;;;13.31;75.46
62402;BME280;48440;51.224;22.506;2022-09-09T05:35:58;98938.09;;;13.29;75.38
62402;BME280;48440;51.224;22.506;2022-09-09T05:38:24;98940.53;;;13.31;75.67
62402;BME280;48440;51.224;22.506;2022-09-09T05:40:51;98937.53;;;13.32;75.50
62402;BME280;48440;51.224;22.506;2022-09-09T05:43:18;98933.53;;;13.19;75.94
62402;BME280;48440;51.224;22.506;2022-09-09T05:45:47;98941.69;;;13.24;76.34
62402;BME280;48440;51.224;22.506;2022-09-09T05:48:16;98946.28;;;13.29;75.78
62402;BME280;48440;51.224;22.506;2022-09-09T05:50:42;98948.44;;;13.32;75.63
62402;BME280;48440;51.224;22.506;2022-09-09T05:53:09;98945.44;;;13.29;76.07
62402;BME280;48440;51.224;22.506;2022-09-09T05:55:36;98959.63;;;13.25;76.56
62402;BME280;48440;51.224;22.506;2022-09-09T05:58:02;98955.59;;;13.23;76.08
62402;BME280;48440;51.224;22.506;2022-09-09T06:00:28;98958.06;;;13.09;76.55
62402;BME280;48440;51.224;22.506;2022-09-09T06:02:54;98963.56;;;12.99;77.19
62402;BME280;48440;51.224;22.506;2022-09-09T06:05:20;98963.78;;;13.03;77.39
62402;BME280;48440;51.224;22.506;2022-09-09T06:07:48;98966.81;;;13.01;76.90
62402;BME280;48440;51.224;22.506;2022-09-09T06:10:17;98970.06;;;13.03;77.54
62402;BME280;48440;51.224;22.506;2022-09-09T06:12:43;98969.78;;;13.05;77.12
62402;BME280;48440;51.224;22.506;2022-09-09T06:15:09;98969.22;;;13.08;77.54
62402;BME280;48440;51.224;22.506;2022-09-09T06:17:35;98970.03;;;13.08;77.25
62402;BME280;48440;51.224;22.506;2022-09-09T06:20:02;98976.03;;;13.10;76.94
62402;BME280;48440;51.224;22.506;2022-09-09T06:22:28;98968.94;;;13.14;77.07
62402;BME280;48440;51.224;22.506;2022-09-09T06:24:53;98972.50;;;13.20;76.92
62402;BME280;48440;51.224;22.506;2022-09-09T06:27:19;98974.69;;;13.18;77.00
62402;BME280;48440;51.224;22.506;2022-09-09T06:29:44;98969.22;;;13.23;76.29
62402;BME280;48440;51.224;22.506;2022-09-09T06:32:10;98970.59;;;13.20;76.36
62402;BME280;48440;51.224;22.506;2022-09-09T06:34:36;98971.41;;;13.16;76.93
62402;BME280;48440;51.224;22.506;2022-09-09T06:37:02;98985.03;;;13.21;76.59
62402;BME280;48440;51.224;22.506;2022-09-09T06:39:28;98979.56;;;13.11;76.56
62402;BME280;48440;51.224;22.506;2022-09-09T06:41:54;98983.13;;;13.16;76.83
62402;BME280;48440;51.224;22.506;2022-09-09T06:44:19;98980.66;;;13.20;76.81
62402;BME280;48440;51.224;22.506;2022-09-09T06:46:45;98982.84;;;13.18;76.95
62402;BME280;48440;51.224;22.506;2022-09-09T06:49:13;98989.66;;;13.20;76.99
62402;BME280;48440;51.224;22.506;2022-09-09T06:51:39;98991.84;;;13.18;77.49
62402;BME280;48440;51.224;22.506;2022-09-09T06:54:08;98996.47;;;13.18;76.90
62402;BME280;48440;51.224;22.506;2022-09-09T06:56:36;99002.72;;;13.13;77.58
62402;BME280;48440;51.224;22.506;2022-09-09T06:59:06;98995.13;;;13.15;77.24
62402;BME280;48440;51.224;22.506;2022-09-09T07:01:38;99001.38;;;13.11;76.98
62402;BME280;48440;51.224;22.506;2022-09-09T07:04:06;99005.72;;;13.12;76.64
62402;BME280;48440;51.224;22.506;2022-09-09T07:06:36;99008.75;;;13.15;77.03
62402;BME280;48440;51.224;22.506;2022-09-09T07:09:07;99009.81;;;13.09;77.07
62402;BME280;48440;51.224;22.506;2022-09-09T07:11:48;99006.53;;;13.12;77.19
62402;BME280;48440;51.224;22.506;2022-09-09T07:14:14;99020.19;;;13.02;77.10
62402;BME280;48440;51.224;22.506;2022-09-09T07:16:44;99018.00;;;13.04;76.85
62402;BME280;48440;51.224;22.506;2022-09-09T07:19:11;99018.81;;;13.10;76.77
62402;BME280;48440;51.224;22.506;2022-09-09T07:21:37;99024.50;;;13.13;76.70
62402;BME280;48440;51.224;22.506;2022-09-09T07:24:03;99029.16;;;13.23;76.45
62402;BME280;48440;51.224;22.506;2022-09-09T07:26:33;99025.03;;;13.25;75.53
62402;BME280;48440;51.224;22.506;2022-09-09T07:28:59;99032.41;;;13.25;75.54
62402;BME280;48440;51.224;22.506;2022-09-09T07:31:30;99029.16;;;13.23;76.02
62402;BME280;48440;51.224;22.506;2022-09-09T07:33:56;99038.66;;;13.25;76.21
62402;BME280;48440;51.224;22.506;2022-09-09T07:36:30;99039.47;;;13.26;76.07
62402;BME280;48440;51.224;22.506;2022-09-09T07:38:58;99041.63;;;13.34;75.82
62402;BME280;48440;51.224;22.506;2022-09-09T07:41:36;99045.72;;;13.32;76.21
62402;BME280;48440;51.224;22.506;2022-09-09T07:46:39;99042.47;;;13.30;75.99
62402;BME280;48440;51.224;22.506;2022-09-09T07:49:05;99044.69;;;13.22;75.92
62402;BME280;48440;51.224;22.506;2022-09-09T07:51:34;99044.66;;;13.28;76.39
62402;BME280;48440;51.224;22.506;2022-09-09T07:54:04;99057.72;;;13.25;76.72
62402;BME280;48440;51.224;22.506;2022-09-09T07:56:30;99060.72;;;13.29;76.44
62402;BME280;48440;51.224;22.506;2022-09-09T07:58:58;99056.06;;;13.35;76.02
62402;BME280;48440;51.224;22.506;2022-09-09T08:01:30;99062.34;;;13.35;76.13
62402;BME280;48440;51.224;22.506;2022-09-09T08:04:02;99067.03;;;13.24;76.77
62402;BME280;48440;51.224;22.506;2022-09-09T08:06:39;99069.75;;;13.19;77.10
62402;BME280;48440;51.224;22.506;2022-09-09T08:09:06;99056.63;;;13.27;76.63
62402;BME280;48440;51.224;22.506;2022-09-09T08:11:32;99067.31;;;13.23;77.01
62402;BME280;48440;51.224;22.506;2022-09-09T08:13:58;99069.75;;;13.24;76.58
62402;BME280;48440;51.224;22.506;2022-09-09T08:16:27;99079.00;;;13.23;77.07
62402;BME280;48440;51.224;22.506;2022-09-09T08:18:53;99081.47;;;13.25;77.78
62402;BME280;48440;51.224;22.506;2022-09-09T08:21:31;99079.25;;;13.27;77.11
62402;BME280;48440;51.224;22.506;2022-09-09T08:23:59;99077.34;;;13.28;77.84
62402;BME280;48440;51.224;22.506;2022-09-09T08:26:30;99074.88;;;13.26;77.83
62402;BME280;48440;51.224;22.506;2022-09-09T08:28:58;99081.97;;;13.32;77.52
62402;BME280;48440;51.224;22.506;2022-09-09T08:31:26;99080.34;;;13.31;77.77
62402;BME280;48440;51.224;22.506;2022-09-09T08:33:54;99074.59;;;13.33;77.97
62402;BME280;48440;51.224;22.506;2022-09-09T08:36:21;99086.59;;;13.32;77.88
62402;BME280;48440;51.224;22.506;2022-09-09T08:38:51;99078.69;;;13.30;77.93
62402;BME280;48440;51.224;22.506;2022-09-09T08:52:29;99078.94;;;13.39;77.92
62402;BME280;48440;51.224;22.506;2022-09-09T08:55:20;99077.84;;;13.40;77.99
62402;BME280;48440;51.224;22.506;2022-09-09T08:57:49;99070.22;;;13.42;77.60
62402;BME280;48440;51.224;22.506;2022-09-09T09:00:20;99078.66;;;13.45;78.03
62402;BME280;48440;51.224;22.506;2022-09-09T09:10:58;99095.00;;;13.45;77.34
62402;BME280;48440;51.224;22.506;2022-09-09T09:13:38;99094.19;;;13.45;78.01
62402;BME280;48440;51.224;22.506;2022-09-09T09:16:19;99093.66;;;13.43;78.05
62402;BME280;48440;51.224;22.506;2022-09-09T09:18:47;99083.84;;;13.47;77.67
62402;BME280;48440;51.224;22.506;2022-09-09T09:21:25;99094.47;;;13.43;77.79
62402;BME280;48440;51.224;22.506;2022-09-09T09:23:56;99095.28;;;13.44;78.11
62402;BME280;48440;51.224;22.506;2022-09-09T09:26:25;99098.84;;;13.39;78.32
62402;BME280;48440;51.224;22.506;2022-09-09T09:28:55;99101.84;;;13.43;78.97
62402;BME280;48440;51.224;22.506;2022-09-09T09:31:22;99095.00;;;13.45;79.15
62402;BME280;48440;51.224;22.506;2022-09-09T09:33:54;99099.34;;;13.51;79.02
62402;BME280;48440;51.224;22.506;2022-09-09T09:36:26;99098.78;;;13.54;79.01
62402;BME280;48440;51.224;22.506;2022-09-09T09:39:00;99102.59;;;13.53;78.60
62402;BME280;48440;51.224;22.506;2022-09-09T09:41:37;99100.13;;;13.57;78.71
62402;BME280;48440;51.224;22.506;2022-09-09T09:44:05;99094.13;;;13.60;78.55
62402;BME280;48440;51.224;22.506;2022-09-09T09:46:32;99105.03;;;13.60;78.51
62402;BME280;48440;51.224;22.506;2022-09-09T09:49:02;99099.31;;;13.56;78.38
62402;BME280;48440;51.224;22.506;2022-09-09T09:51:30;99106.19;;;13.49;78.82
62402;BME280;48440;51.224;22.506;2022-09-09T09:56:42;99102.59;;;13.53;79.39
62402;BME280;48440;51.224;22.506;2022-09-09T10:02:11;99104.75;;;13.62;79.23
62402;BME280;48440;51.224;22.506;2022-09-09T10:04:38;99114.28;;;13.64;78.90
62402;BME280;48440;51.224;22.506;2022-09-09T10:07:15;99105.56;;;13.62;78.56
62402;BME280;48440;51.224;22.506;2022-09-09T10:09:42;99103.91;;;13.66;79.14
62402;BME280;48440;51.224;22.506;2022-09-09T10:23:26;99123.31;;;13.59;79.97
62402;BME280;48440;51.224;22.506;2022-09-09T10:31:45;99138.28;;;13.67;79.92
62402;BME280;48440;51.224;22.506;2022-09-09T10:40:19;99133.91;;;13.71;80.92
62402;BME280;48440;51.224;22.506;2022-09-09T10:42:46;99133.34;;;13.74;80.42
62402;BME280;48440;51.224;22.506;2022-09-09T10:45:23;99134.66;;;13.82;79.79
62402;BME280;48440;51.224;22.506;2022-09-09T10:50:52;99145.53;;;13.92;79.43
62402;BME280;48440;51.224;22.506;2022-09-09T10:56:30;99145.50;;;14.02;78.92
62402;BME280;48440;51.224;22.506;2022-09-09T10:59:20;99146.31;;;13.98;78.96
62402;BME280;48440;51.224;22.506;2022-09-09T11:06:54;99139.25;;;13.91;79.13
62402;BME280;48440;51.224;22.506;2022-09-09T11:09:27;99139.78;;;13.93;79.38
62402;BME280;48440;51.224;22.506;2022-09-09T11:11:58;99135.97;;;13.95;79.88
62402;BME280;48440;51.224;22.506;2022-09-09T11:14:41;99140.06;;;13.97;79.26
62402;BME280;48440;51.224;22.506;2022-09-09T11:17:42;99136.50;;;13.97;79.37
62402;BME280;48440;51.224;22.506;2022-09-09T11:20:13;99139.25;;;13.91;80.05
62402;BME280;48440;51.224;22.506;2022-09-09T11:22:45;99139.78;;;13.99;79.91
62402;BME280;48440;51.224;22.506;2022-09-09T11:25:23;99140.84;;;14.03;79.86
62402;BME280;48440;51.224;22.506;2022-09-09T11:28:12;99144.91;;;14.05;79.49
62402;BME280;48440;51.224;22.506;2022-09-09T11:38:52;99150.06;;;14.07;79.59
62402;BME280;48440;51.224;22.506;2022-09-09T11:41:19;99151.75;;;14.03;79.42
62402;BME280;48440;51.224;22.506;2022-09-09T11:43:52;99158.81;;;14.04;79.92
62402;BME280;48440;51.224;22.506;2022-09-09T11:46:32;99156.09;;;14.04;79.81
62402;BME280;48440;51.224;22.506;2022-09-09T11:49:05;99158.81;;;14.09;79.50
62402;BME280;48440;51.224;22.506;2022-09-09T11:51:33;99168.34;;;14.11;79.64
62402;BME280;48440;51.224;22.506;2022-09-09T11:54:26;99172.97;;;14.11;80.19
62402;BME280;48440;51.224;22.506;2022-09-09T11:56:55;99165.06;;;14.09;80.32
62402;BME280;48440;51.224;22.506;2022-09-09T11:59:30;99171.09;;;14.06;80.38
62402;BME280;48440;51.224;22.506;2022-09-09T12:02:01;99181.19;;;14.06;79.99
62402;BME280;48440;51.224;22.506;2022-09-09T12:05:09;99177.63;;;14.05;79.96
62402;BME280;48440;51.224;22.506;2022-09-09T12:07:58;99185.00;;;14.10;80.41
62402;BME280;48440;51.224;22.506;2022-09-09T12:10:32;99173.78;;;14.11;80.38
62402;BME280;48440;51.224;22.506;2022-09-09T12:13:20;99177.88;;;14.14;80.19
62402;BME280;48440;51.224;22.506;2022-09-09T12:15:53;99181.72;;;14.08;79.98
62402;BME280;48440;51.224;22.506;2022-09-09T12:18:31;99177.63;;;14.10;80.20
62402;BME280;48440;51.224;22.506;2022-09-09T12:21:21;99182.53;;;14.13;80.48
62402;BME280;48440;51.224;22.506;2022-09-09T12:23:52;99176.22;;;14.18;80.27
62402;BME280;48440;51.224;22.506;2022-09-09T12:34:41;99185.06;;;14.00;80.93
62402;BME280;48440;51.224;22.506;2022-09-09T12:37:29;99190.50;;;14.00;81.03
62402;BME280;48440;51.224;22.506;2022-09-09T12:39:59;99182.00;;;14.06;80.70
62402;BME280;48440;51.224;22.506;2022-09-09T12:42:26;99190.75;;;14.03;80.31
62402;BME280;48440;51.224;22.506;2022-09-09T12:44:59;99186.63;;;14.11;80.13
62402;BME280;48440;51.224;22.506;2022-09-09T12:47:40;99185.78;;;14.15;79.92
62402;BME280;48440;51.224;22.506;2022-09-09T12:52:54;99187.19;;;14.08;80.40
62402;BME280;48440;51.224;22.506;2022-09-09T12:55:24;99196.47;;;14.07;80.86
62402;BME280;48440;51.224;22.506;2022-09-09T12:57:51;99188.53;;;14.10;80.63
62402;BME280;48440;51.224;22.506;2022-09-09T13:00:24;99184.72;;;14.11;80.94
62402;BME280;48440;51.224;22.506;2022-09-09T13:02:55;99182.78;;;14.17;80.38
62402;BME280;48440;51.224;22.506;2022-09-09T13:05:26;99186.88;;;14.19;80.88
62402;BME280;48440;51.224;22.506;2022-09-09T13:08:10;99184.94;;;14.20;80.28
62402;BME280;48440;51.224;22.506;2022-09-09T13:10:39;99181.13;;;14.21;80.81
62402;BME280;48440;51.224;22.506;2022-09-09T13:13:21;99191.75;;;14.22;80.65
62402;BME280;48440;51.224;22.506;2022-09-09T13:15:54;99183.00;;;14.25;80.11
62402;BME280;48440;51.224;22.506;2022-09-09T13:18:23;99183.56;;;14.27;80.56
62402;BME280;48440;51.224;22.506;2022-09-09T13:20:49;99184.59;;;14.32;80.17
62402;BME280;48440;51.224;22.506;2022-09-09T13:23:18;99183.78;;;14.31;79.79
62402;BME280;48440;51.224;22.506;2022-09-09T13:26:02;99176.94;;;14.34;80.16
62402;BME280;48440;51.224;22.506;2022-09-09T13:28:30;99174.50;;;14.32;80.30
62402;BME280;48440;51.224;22.506;2022-09-09T13:31:01;99170.94;;;14.37;79.67
62402;BME280;48440;51.224;22.506;2022-09-09T13:33:36;99166.00;;;14.39;80.19
62402;BME280;48440;51.224;22.506;2022-09-09T13:36:07;99162.16;;;14.50;79.62
62402;BME280;48440;51.224;22.506;2022-09-09T13:38:57;99160.72;;;14.57;79.57
62402;BME280;48440;51.224;22.506;2022-09-09T13:41:33;99169.72;;;14.58;79.21
62402;BME280;48440;51.224;22.506;2022-09-09T13:44:01;99163.50;;;14.52;79.00
62402;BME280;48440;51.224;22.506;2022-09-09T13:46:41;99159.16;;;14.46;79.22
62402;BME280;48440;51.224;22.506;2022-09-09T13:51:47;99151.78;;;14.47;79.01
62402;BME280;48440;51.224;22.506;2022-09-09T13:54:21;99154.72;;;14.55;78.98
62402;BME280;48440;51.224;22.506;2022-09-09T13:56:48;99159.31;;;14.60;78.60
62402;BME280;48440;51.224;22.506;2022-09-09T13:59:46;99153.34;;;14.58;79.03
62402;BME280;48440;51.224;22.506;2022-09-09T14:02:27;99156.34;;;14.56;79.17
62402;BME280;48440;51.224;22.506;2022-09-09T14:05:13;99168.16;;;14.47;79.45
62402;BME280;48440;51.224;22.506;2022-09-09T14:07:47;99161.91;;;14.46;79.49
62402;BME280;48440;51.224;22.506;2022-09-09T14:10:17;99163.78;;;14.51;80.02
62402;BME280;48440;51.224;22.506;2022-09-09T14:12:53;99151.19;;;14.55;80.08
62402;BME280;48440;51.224;22.506;2022-09-09T14:15:19;99156.66;;;14.55;79.80
62402;BME280;48440;51.224;22.506;2022-09-09T14:17:45;99167.31;;;14.51;79.99
62402;BME280;48440;51.224;22.506;2022-09-09T14:20:14;99170.00;;;14.56;79.30
62402;BME280;48440;51.224;22.506;2022-09-09T14:22:43;99167.81;;;14.58;79.66
62402;BME280;48440;51.224;22.506;2022-09-09T14:25:09;99162.59;;;14.62;79.07
62402;BME280;48440;51.224;22.506;2022-09-09T14:27:36;99173.81;;;14.55;79.23
62402;BME280;48440;51.224;22.506;2022-09-09T14:30:04;99174.63;;;14.56;79.08
62402;BME280;48440;51.224;22.506;2022-09-09T14:32:30;99174.97;;;14.54;79.32
62402;BME280;48440;51.224;22.506;2022-09-09T14:34:56;99175.47;;;14.56;79.06
62402;BME280;48440;51.224;22.506;2022-09-09T14:37:21;99178.19;;;14.56;79.68
62402;BME280;48440;51.224;22.506;2022-09-09T14:39:47;99169.72;;;14.58;79.50
62402;BME280;48440;51.224;22.506;2022-09-09T14:42:16;99172.44;;;14.58;79.29
62402;BME280;48440;51.224;22.506;2022-09-09T14:44:42;99158.25;;;14.56;79.46
62402;BME280;48440;51.224;22.506;2022-09-09T14:47:08;99158.78;;;14.58;79.21
62402;BME280;48440;51.224;22.506;2022-09-09T14:49:38;99175.16;;;14.63;79.51
62402;BME280;48440;51.224;22.506;2022-09-09T14:52:04;99175.41;;;14.67;79.30
62402;BME280;48440;51.224;22.506;2022-09-09T14:54:31;99178.41;;;14.65;79.21
62402;BME280;48440;51.224;22.506;2022-09-09T14:57:13;99178.69;;;14.64;79.15
62402;BME280;48440;51.224;22.506;2022-09-09T14:59:39;99172.69;;;14.62;79.25
62402;BME280;48440;51.224;22.506;2022-09-09T15:02:23;99180.06;;;14.61;79.22
62402;BME280;48440;51.224;22.506;2022-09-09T15:04:48;99169.44;;;14.59;79.43
62402;BME280;48440;51.224;22.506;2022-09-09T15:07:16;99157.41;;;14.60;78.93
62402;BME280;48440;51.224;22.506;2022-09-09T15:09:47;99176.53;;;14.60;79.29
62402;BME280;48440;51.224;22.506;2022-09-09T15:12:16;99174.06;;;14.59;79.31
62402;BME280;48440;51.224;22.506;2022-09-09T15:14:53;99181.22;;;14.55;79.47
62402;BME280;48440;51.224;22.506;2022-09-09T15:17:23;99185.88;;;14.54;79.58